sensor_id;sensor_type;location;lat;lon;timestamp;noise_LAeq;noise_LA_min;noise_LA_max;noise_LA01;noise_LA95
71628;Laerm;59477;52.374;9.916;2023-05-16T00:01:54;48.90;42.85;67.64;;
71628;Laerm;59477;52.374;9.916;2023-05-16T00:03:55;51.20;42.34;65.10;;
71628;Laerm;59477;52.374;9.916;2023-05-16T00:05:56;54.80;42.45;64.61;;
71628;Laerm;59477;52.374;9.916;2023-05-16T00:07:57;52.93;43.89;76.18;;
71628;Laerm;59477;52.374;9.916;2023-05-16T00:09:58;55.82;45.22;69.49;;
71628;Laerm;59477;52.374;9.916;2023-05-16T00:11:58;48.40;42.47;56.07;;
71628;Laerm;59477;52.374;9.916;2023-05-16T00:13:59;51.60;42.48;64.28;;
71628;Laerm;59477;52.374;9.916;2023-05-16T00:16:01;53.67;42.90;71.92;;
71628;Laerm;59477;52.374;9.916;2023-05-16T00:18:01;52.59;45.12;68.89;;
71628;Laerm;59477;52.374;9.916;2023-05-16T00:20:02;50.36;42.97;60.96;;
71628;Laerm;59477;52.374;9.916;2023-05-16T00:22:10;49.74;43.61;59.13;;
71628;Laerm;59477;52.374;9.916;2023-05-16T00:24:11;48.19;41.85;59.87;;
71628;Laerm;59477;52.374;9.916;2023-05-16T00:26:11;47.86;42.53;56.33;;
71628;Laerm;59477;52.374;9.916;2023-05-16T00:28:12;45.78;40.50;57.49;;
71628;Laerm;59477;52.374;9.916;2023-05-16T00:30:13;46.32;40.81;52.71;;
71628;Laerm;59477;52.374;9.916;2023-05-16T00:32:14;51.32;42.43;60.55;;
71628;Laerm;59477;52.374;9.916;2023-05-16T00:34:33;48.02;42.08;57.34;;
71628;Laerm;59477;52.374;9.916;2023-05-16T00:36:33;45.97;40.88;53.49;;
71628;Laerm;59477;52.374;9.916;2023-05-16T00:38:35;48.84;41.47;62.14;;
71628;Laerm;59477;52.374;9.916;2023-05-16T00:40:36;54.55;42.97;64.97;;
71628;Laerm;59477;52.374;9.916;2023-05-16T00:42:38;45.98;40.06;61.26;;
71628;Laerm;59477;52.374;9.916;2023-05-16T00:44:56;49.54;43.80;60.62;;
71628;Laerm;59477;52.374;9.916;2023-05-16T00:46:57;52.31;43.07;65.78;;
71628;Laerm;59477;52.374;9.916;2023-05-16T00:49:17;49.86;43.75;64.72;;
71628;Laerm;59477;52.374;9.916;2023-05-16T00:51:18;47.75;43.15;58.59;;
71628;Laerm;59477;52.374;9.916;2023-05-16T00:53:19;47.84;40.67;62.40;;
71628;Laerm;59477;52.374;9.916;2023-05-16T00:55:20;46.87;41.52;57.35;;
71628;Laerm;59477;52.374;9.916;2023-05-16T00:57:21;45.83;40.61;53.23;;
71628;Laerm;59477;52.374;9.916;2023-05-16T00:59:24;49.31;41.59;65.36;;
71628;Laerm;59477;52.374;9.916;2023-05-16T01:01:25;49.13;43.24;60.31;;
71628;Laerm;59477;52.374;9.916;2023-05-16T01:03:45;47.30;42.55;57.49;;
71628;Laerm;59477;52.374;9.916;2023-05-16T01:05:46;47.51;42.16;57.26;;
71628;Laerm;59477;52.374;9.916;2023-05-16T01:08:05;47.12;42.14;53.60;;
71628;Laerm;59477;52.374;9.916;2023-05-16T01:10:05;48.07;42.69;66.89;;
71628;Laerm;59477;52.374;9.916;2023-05-16T01:16:48;49.84;43.21;63.88;;
71628;Laerm;59477;52.374;9.916;2023-05-16T01:18:53;47.07;41.87;56.67;;
71628;Laerm;59477;52.374;9.916;2023-05-16T01:21:15;45.72;41.11;63.48;;
71628;Laerm;59477;52.374;9.916;2023-05-16T01:25:45;46.46;42.43;51.41;;
71628;Laerm;59477;52.374;9.916;2023-05-16T01:28:04;46.27;40.94;52.30;;
71628;Laerm;59477;52.374;9.916;2023-05-16T01:30:12;50.44;44.61;72.00;;
71628;Laerm;59477;52.374;9.916;2023-05-16T01:32:32;55.76;43.44;67.11;;
71628;Laerm;59477;52.374;9.916;2023-05-16T01:34:32;47.45;42.26;56.43;;
71628;Laerm;59477;52.374;9.916;2023-05-16T01:40:43;46.22;41.44;55.38;;
71628;Laerm;59477;52.374;9.916;2023-05-16T01:42:46;54.07;41.74;64.55;;
71628;Laerm;59477;52.374;9.916;2023-05-16T01:45:22;49.32;43.80;58.64;;
71628;Laerm;59477;52.374;9.916;2023-05-16T01:47:25;50.08;42.82;61.71;;
71628;Laerm;59477;52.374;9.916;2023-05-16T01:49:35;47.56;42.61;67.12;;
71628;Laerm;59477;52.374;9.916;2023-05-16T01:51:38;49.54;43.05;57.99;;
71628;Laerm;59477;52.374;9.916;2023-05-16T01:53:40;47.02;42.50;53.78;;
71628;Laerm;59477;52.374;9.916;2023-05-16T01:55:45;50.55;44.56;59.10;;
71628;Laerm;59477;52.374;9.916;2023-05-16T01:57:46;48.30;44.13;58.18;;
71628;Laerm;59477;52.374;9.916;2023-05-16T02:00:06;50.92;42.59;62.96;;
71628;Laerm;59477;52.374;9.916;2023-05-16T02:02:07;48.51;44.04;56.89;;
71628;Laerm;59477;52.374;9.916;2023-05-16T02:04:26;46.74;42.11;52.62;;
71628;Laerm;59477;52.374;9.916;2023-05-16T02:06:45;47.87;42.68;55.06;;
71628;Laerm;59477;52.374;9.916;2023-05-16T02:09:04;50.23;44.43;58.85;;
71628;Laerm;59477;52.374;9.916;2023-05-16T02:11:05;47.34;42.45;51.23;;
71628;Laerm;59477;52.374;9.916;2023-05-16T02:13:05;46.99;42.82;52.78;;
71628;Laerm;59477;52.374;9.916;2023-05-16T02:15:06;54.42;43.96;67.25;;
71628;Laerm;59477;52.374;9.916;2023-05-16T02:17:07;47.22;43.39;55.29;;
71628;Laerm;59477;52.374;9.916;2023-05-16T02:19:07;48.68;44.19;54.11;;
71628;Laerm;59477;52.374;9.916;2023-05-16T02:21:08;49.52;44.94;55.09;;
71628;Laerm;59477;52.374;9.916;2023-05-16T02:23:09;47.97;42.66;54.01;;
71628;Laerm;59477;52.374;9.916;2023-05-16T02:25:09;47.55;42.36;52.68;;
71628;Laerm;59477;52.374;9.916;2023-05-16T02:27:10;47.38;42.09;64.01;;
71628;Laerm;59477;52.374;9.916;2023-05-16T02:29:28;55.45;42.34;71.28;;
71628;Laerm;59477;52.374;9.916;2023-05-16T02:31:30;58.18;45.24;72.08;;
71628;Laerm;59477;52.374;9.916;2023-05-16T02:33:49;48.97;41.45;56.76;;
71628;Laerm;59477;52.374;9.916;2023-05-16T02:35:50;50.87;45.10;56.94;;
71628;Laerm;59477;52.374;9.916;2023-05-16T02:38:09;48.47;41.99;58.36;;
71628;Laerm;59477;52.374;9.916;2023-05-16T02:40:09;49.18;43.39;58.36;;
71628;Laerm;59477;52.374;9.916;2023-05-16T02:42:31;50.71;45.01;59.03;;
71628;Laerm;59477;52.374;9.916;2023-05-16T02:44:32;54.04;45.11;72.29;;
71628;Laerm;59477;52.374;9.916;2023-05-16T02:46:33;52.07;44.63;64.94;;
71628;Laerm;59477;52.374;9.916;2023-05-16T02:48:34;51.50;43.90;64.88;;
71628;Laerm;59477;52.374;9.916;2023-05-16T02:50:35;51.32;44.04;64.95;;
71628;Laerm;59477;52.374;9.916;2023-05-16T02:52:36;68.36;44.00;91.26;;
71628;Laerm;59477;52.374;9.916;2023-05-16T02:54:37;75.77;44.98;96.27;;
71628;Laerm;59477;52.374;9.916;2023-05-16T02:56:40;57.28;44.33;70.60;;
71628;Laerm;59477;52.374;9.916;2023-05-16T02:58:41;57.25;42.90;71.04;;
71628;Laerm;59477;52.374;9.916;2023-05-16T03:00:41;56.32;44.18;73.55;;
71628;Laerm;59477;52.374;9.916;2023-05-16T03:03:00;57.52;45.52;70.51;;
71628;Laerm;59477;52.374;9.916;2023-05-16T03:05:01;52.82;44.43;67.63;;
71628;Laerm;59477;52.374;9.916;2023-05-16T03:07:02;51.96;46.56;66.06;;
71628;Laerm;59477;52.374;9.916;2023-05-16T03:09:02;52.63;47.55;61.24;;
71628;Laerm;59477;52.374;9.916;2023-05-16T03:11:03;51.57;45.76;58.26;;
71628;Laerm;59477;52.374;9.916;2023-05-16T03:13:23;51.74;45.83;57.33;;
71628;Laerm;59477;52.374;9.916;2023-05-16T03:15:23;51.04;45.52;57.40;;
71628;Laerm;59477;52.374;9.916;2023-05-16T03:17:24;51.19;45.64;57.89;;
71628;Laerm;59477;52.374;9.916;2023-05-16T03:19:25;50.75;44.20;58.14;;
71628;Laerm;59477;52.374;9.916;2023-05-16T03:21:25;50.75;45.27;57.78;;
71628;Laerm;59477;52.374;9.916;2023-05-16T03:23:26;52.10;45.43;64.15;;
71628;Laerm;59477;52.374;9.916;2023-05-16T03:25:27;55.97;45.89;65.69;;
71628;Laerm;59477;52.374;9.916;2023-05-16T03:27:27;53.07;46.90;64.49;;
71628;Laerm;59477;52.374;9.916;2023-05-16T03:29:29;52.68;46.40;64.83;;
71628;Laerm;59477;52.374;9.916;2023-05-16T03:31:29;54.03;48.44;58.89;;
71628;Laerm;59477;52.374;9.916;2023-05-16T03:33:31;55.04;48.91;67.28;;
71628;Laerm;59477;52.374;9.916;2023-05-16T03:35:32;54.25;49.83;60.14;;
71628;Laerm;59477;52.374;9.916;2023-05-16T03:37:33;53.17;48.29;61.17;;
71628;Laerm;59477;52.374;9.916;2023-05-16T03:39:34;52.81;47.67;60.00;;
71628;Laerm;59477;52.374;9.916;2023-05-16T03:41:35;53.62;48.80;70.00;;
71628;Laerm;59477;52.374;9.916;2023-05-16T03:43:35;53.99;48.71;59.70;;
71628;Laerm;59477;52.374;9.916;2023-05-16T03:45:36;62.27;48.20;74.10;;
71628;Laerm;59477;52.374;9.916;2023-05-16T03:47:55;52.94;48.16;65.43;;
71628;Laerm;59477;52.374;9.916;2023-05-16T03:50:14;53.83;48.14;67.87;;
71628;Laerm;59477;52.374;9.916;2023-05-16T03:52:15;56.39;48.91;74.09;;
71628;Laerm;59477;52.374;9.916;2023-05-16T03:54:16;51.79;47.58;62.02;;
71628;Laerm;59477;52.374;9.916;2023-05-16T03:56:34;53.92;49.55;65.98;;
71628;Laerm;59477;52.374;9.916;2023-05-16T03:58:35;54.37;49.54;63.16;;
71628;Laerm;59477;52.374;9.916;2023-05-16T04:00:36;55.62;49.49;65.99;;
71628;Laerm;59477;52.374;9.916;2023-05-16T04:02:37;54.13;49.18;69.73;;
71628;Laerm;59477;52.374;9.916;2023-05-16T04:04:39;53.95;48.94;63.14;;
71628;Laerm;59477;52.374;9.916;2023-05-16T04:06:40;52.57;48.26;57.75;;
71628;Laerm;59477;52.374;9.916;2023-05-16T04:08:40;55.36;48.94;66.62;;
71628;Laerm;59477;52.374;9.916;2023-05-16T04:11:02;57.72;49.42;72.76;;
71628;Laerm;59477;52.374;9.916;2023-05-16T04:13:03;52.28;48.36;62.46;;
71628;Laerm;59477;52.374;9.916;2023-05-16T04:15:22;52.50;48.23;58.98;;
71628;Laerm;59477;52.374;9.916;2023-05-16T04:17:30;54.03;49.26;67.39;;
71628;Laerm;59477;52.374;9.916;2023-05-16T04:19:49;53.41;49.31;62.07;;
71628;Laerm;59477;52.374;9.916;2023-05-16T04:22:08;52.34;48.29;58.59;;
71628;Laerm;59477;52.374;9.916;2023-05-16T04:24:08;52.70;48.71;65.86;;
71628;Laerm;59477;52.374;9.916;2023-05-16T04:26:27;52.61;48.20;59.64;;
71628;Laerm;59477;52.374;9.916;2023-05-16T04:28:31;52.81;47.65;69.15;;
71628;Laerm;59477;52.374;9.916;2023-05-16T04:30:50;53.40;48.64;58.72;;
71628;Laerm;59477;52.374;9.916;2023-05-16T04:32:51;51.04;46.38;55.82;;
71628;Laerm;59477;52.374;9.916;2023-05-16T04:34:51;52.45;48.21;59.52;;
71628;Laerm;59477;52.374;9.916;2023-05-16T04:36:53;53.11;48.04;59.56;;
71628;Laerm;59477;52.374;9.916;2023-05-16T04:38:55;52.64;48.72;58.17;;
71628;Laerm;59477;52.374;9.916;2023-05-16T04:40:56;53.79;48.93;68.30;;
71628;Laerm;59477;52.374;9.916;2023-05-16T04:42:57;52.70;48.47;61.22;;
71628;Laerm;59477;52.374;9.916;2023-05-16T04:45:00;53.57;48.11;60.84;;
71628;Laerm;59477;52.374;9.916;2023-05-16T04:47:13;53.75;49.15;61.10;;
71628;Laerm;59477;52.374;9.916;2023-05-16T04:49:32;53.02;47.81;60.96;;
71628;Laerm;59477;52.374;9.916;2023-05-16T04:51:32;57.26;48.45;74.52;;
71628;Laerm;59477;52.374;9.916;2023-05-16T04:53:52;52.06;47.15;58.54;;
71628;Laerm;59477;52.374;9.916;2023-05-16T04:55:52;53.52;48.32;69.52;;
71628;Laerm;59477;52.374;9.916;2023-05-16T04:57:53;54.80;48.60;69.44;;
71628;Laerm;59477;52.374;9.916;2023-05-16T04:59:54;55.58;49.96;71.38;;
71628;Laerm;59477;52.374;9.916;2023-05-16T05:02:13;53.59;47.77;68.24;;
71628;Laerm;59477;52.374;9.916;2023-05-16T05:04:13;58.12;49.68;75.16;;
71628;Laerm;59477;52.374;9.916;2023-05-16T05:06:14;53.18;48.00;66.73;;
71628;Laerm;59477;52.374;9.916;2023-05-16T05:08:14;54.53;50.01;66.02;;
71628;Laerm;59477;52.374;9.916;2023-05-16T05:10:15;55.10;48.99;71.64;;
71628;Laerm;59477;52.374;9.916;2023-05-16T05:12:16;54.56;48.75;62.24;;
71628;Laerm;59477;52.374;9.916;2023-05-16T05:14:35;56.32;49.51;65.51;;
71628;Laerm;59477;52.374;9.916;2023-05-16T05:16:54;54.70;48.91;68.21;;
71628;Laerm;59477;52.374;9.916;2023-05-16T05:18:54;54.11;49.73;61.94;;
71628;Laerm;59477;52.374;9.916;2023-05-16T05:21:13;53.12;47.85;59.01;;
71628;Laerm;59477;52.374;9.916;2023-05-16T05:23:14;53.80;48.73;62.81;;
71628;Laerm;59477;52.374;9.916;2023-05-16T05:25:34;56.72;50.64;63.74;;
71628;Laerm;59477;52.374;9.916;2023-05-16T05:27:35;54.98;48.95;65.37;;
71628;Laerm;59477;52.374;9.916;2023-05-16T05:29:35;52.92;49.28;59.88;;
71628;Laerm;59477;52.374;9.916;2023-05-16T05:31:36;54.05;49.03;67.88;;
71628;Laerm;59477;52.374;9.916;2023-05-16T05:33:37;54.04;48.60;69.10;;
71628;Laerm;59477;52.374;9.916;2023-05-16T05:35:38;54.18;49.71;63.46;;
71628;Laerm;59477;52.374;9.916;2023-05-16T05:37:38;58.54;48.88;72.30;;
71628;Laerm;59477;52.374;9.916;2023-05-16T05:39:39;57.30;50.70;68.29;;
71628;Laerm;59477;52.374;9.916;2023-05-16T05:41:40;54.86;49.50;61.95;;
71628;Laerm;59477;52.374;9.916;2023-05-16T05:43:40;54.24;48.73;65.40;;
71628;Laerm;59477;52.374;9.916;2023-05-16T05:45:59;52.80;48.33;58.95;;
71628;Laerm;59477;52.374;9.916;2023-05-16T05:47:59;54.26;47.07;70.27;;
71628;Laerm;59477;52.374;9.916;2023-05-16T05:50:19;52.76;47.88;65.93;;
71628;Laerm;59477;52.374;9.916;2023-05-16T05:52:19;54.18;48.30;69.52;;
71628;Laerm;59477;52.374;9.916;2023-05-16T05:54:20;56.57;47.90;65.67;;
71628;Laerm;59477;52.374;9.916;2023-05-16T05:56:39;53.79;48.80;64.62;;
71628;Laerm;59477;52.374;9.916;2023-05-16T05:58:39;53.94;48.21;65.95;;
71628;Laerm;59477;52.374;9.916;2023-05-16T06:00:41;56.59;49.06;73.86;;
71628;Laerm;59477;52.374;9.916;2023-05-16T06:02:42;53.53;49.93;67.15;;
71628;Laerm;59477;52.374;9.916;2023-05-16T06:04:42;53.69;48.90;64.11;;
71628;Laerm;59477;52.374;9.916;2023-05-16T06:06:44;53.36;49.09;59.89;;
71628;Laerm;59477;52.374;9.916;2023-05-16T06:08:45;53.42;48.16;60.59;;
71628;Laerm;59477;52.374;9.916;2023-05-16T06:10:46;56.73;49.89;66.08;;
71628;Laerm;59477;52.374;9.916;2023-05-16T06:12:48;54.22;48.71;64.62;;
71628;Laerm;59477;52.374;9.916;2023-05-16T06:14:49;55.90;48.57;74.66;;
71628;Laerm;59477;52.374;9.916;2023-05-16T06:16:50;53.66;48.71;67.71;;
71628;Laerm;59477;52.374;9.916;2023-05-16T06:18:51;55.62;48.67;69.46;;
71628;Laerm;59477;52.374;9.916;2023-05-16T06:21:10;53.43;48.06;67.93;;
71628;Laerm;59477;52.374;9.916;2023-05-16T06:23:10;53.33;47.69;66.96;;
71628;Laerm;59477;52.374;9.916;2023-05-16T06:25:30;52.84;48.05;65.01;;
71628;Laerm;59477;52.374;9.916;2023-05-16T06:27:31;52.07;46.78;67.03;;
71628;Laerm;59477;52.374;9.916;2023-05-16T06:29:32;50.91;45.72;58.97;;
71628;Laerm;59477;52.374;9.916;2023-05-16T06:31:33;54.39;47.22;71.83;;
71628;Laerm;59477;52.374;9.916;2023-05-16T06:33:33;50.53;46.51;60.35;;
71628;Laerm;59477;52.374;9.916;2023-05-16T06:35:34;51.95;45.72;61.25;;
71628;Laerm;59477;52.374;9.916;2023-05-16T06:37:34;52.70;46.70;62.43;;
71628;Laerm;59477;52.374;9.916;2023-05-16T06:39:53;52.08;46.59;62.77;;
71628;Laerm;59477;52.374;9.916;2023-05-16T06:41:53;53.41;47.14;64.63;;
71628;Laerm;59477;52.374;9.916;2023-05-16T06:43:54;52.82;48.07;60.93;;
71628;Laerm;59477;52.374;9.916;2023-05-16T06:45:55;53.74;48.07;61.67;;
71628;Laerm;59477;52.374;9.916;2023-05-16T06:47:56;56.51;45.71;69.49;;
71628;Laerm;59477;52.374;9.916;2023-05-16T06:49:56;57.32;48.26;72.79;;
71628;Laerm;59477;52.374;9.916;2023-05-16T06:51:57;54.86;48.66;74.81;;
71628;Laerm;59477;52.374;9.916;2023-05-16T06:54:16;53.31;48.25;63.13;;
71628;Laerm;59477;52.374;9.916;2023-05-16T06:56:16;52.58;46.00;62.01;;
71628;Laerm;59477;52.374;9.916;2023-05-16T06:58:17;51.90;47.17;62.65;;
71628;Laerm;59477;52.374;9.916;2023-05-16T07:00:36;51.81;46.04;58.19;;
71628;Laerm;59477;52.374;9.916;2023-05-16T07:02:36;52.53;48.36;64.23;;
71628;Laerm;59477;52.374;9.916;2023-05-16T07:04:37;54.43;48.70;67.54;;
71628;Laerm;59477;52.374;9.916;2023-05-16T07:06:38;54.71;46.79;69.57;;
71628;Laerm;59477;52.374;9.916;2023-05-16T07:08:38;55.34;48.43;66.36;;
71628;Laerm;59477;52.374;9.916;2023-05-16T07:10:39;53.37;48.32;63.95;;
71628;Laerm;59477;52.374;9.916;2023-05-16T07:12:40;58.43;48.33;70.79;;
71628;Laerm;59477;52.374;9.916;2023-05-16T07:14:40;54.56;47.92;66.52;;
71628;Laerm;59477;52.374;9.916;2023-05-16T07:16:42;52.51;46.97;63.18;;
71628;Laerm;59477;52.374;9.916;2023-05-16T07:19:02;56.83;47.59;68.26;;
71628;Laerm;59477;52.374;9.916;2023-05-16T07:21:02;53.74;47.54;74.46;;
71628;Laerm;59477;52.374;9.916;2023-05-16T07:23:21;53.92;48.13;71.09;;
71628;Laerm;59477;52.374;9.916;2023-05-16T07:25:22;54.22;48.35;65.75;;
71628;Laerm;59477;52.374;9.916;2023-05-16T07:27:23;52.31;46.96;63.48;;
71628;Laerm;59477;52.374;9.916;2023-05-16T07:29:23;54.81;46.39;75.88;;
71628;Laerm;59477;52.374;9.916;2023-05-16T07:31:24;58.19;48.29;70.91;;
71628;Laerm;59477;52.374;9.916;2023-05-16T07:33:43;52.88;48.00;63.68;;
71628;Laerm;59477;52.374;9.916;2023-05-16T07:36:04;52.67;45.91;68.04;;
71628;Laerm;59477;52.374;9.916;2023-05-16T07:38:05;52.18;47.08;66.57;;
71628;Laerm;59477;52.374;9.916;2023-05-16T07:40:24;52.41;48.50;61.18;;
71628;Laerm;59477;52.374;9.916;2023-05-16T07:42:45;52.46;47.25;62.27;;
71628;Laerm;59477;52.374;9.916;2023-05-16T07:44:46;55.04;46.49;76.98;;
71628;Laerm;59477;52.374;9.916;2023-05-16T07:47:05;59.65;46.86;74.82;;
71628;Laerm;59477;52.374;9.916;2023-05-16T07:49:05;55.50;47.74;69.50;;
71628;Laerm;59477;52.374;9.916;2023-05-16T07:51:24;53.01;46.58;65.22;;
71628;Laerm;59477;52.374;9.916;2023-05-16T07:53:25;56.17;46.49;65.96;;
71628;Laerm;59477;52.374;9.916;2023-05-16T07:55:25;56.11;47.20;68.85;;
71628;Laerm;59477;52.374;9.916;2023-05-16T07:57:44;54.49;47.08;66.71;;
71628;Laerm;59477;52.374;9.916;2023-05-16T07:59:45;53.85;45.33;68.15;;
71628;Laerm;59477;52.374;9.916;2023-05-16T08:01:46;52.29;44.58;65.69;;
71628;Laerm;59477;52.374;9.916;2023-05-16T08:03:47;52.76;45.10;65.63;;
71628;Laerm;59477;52.374;9.916;2023-05-16T08:05:47;51.56;45.62;62.98;;
71628;Laerm;59477;52.374;9.916;2023-05-16T08:08:07;53.23;46.94;68.41;;
71628;Laerm;59477;52.374;9.916;2023-05-16T08:10:07;52.55;46.27;66.03;;
71628;Laerm;59477;52.374;9.916;2023-05-16T08:12:08;54.11;47.44;67.84;;
71628;Laerm;59477;52.374;9.916;2023-05-16T08:14:08;51.99;46.16;62.47;;
71628;Laerm;59477;52.374;9.916;2023-05-16T08:16:09;56.29;47.09;70.69;;
71628;Laerm;59477;52.374;9.916;2023-05-16T08:18:29;55.32;47.72;74.30;;
71628;Laerm;59477;52.374;9.916;2023-05-16T08:20:48;55.99;47.27;67.01;;
71628;Laerm;59477;52.374;9.916;2023-05-16T08:23:07;56.32;46.30;69.46;;
71628;Laerm;59477;52.374;9.916;2023-05-16T08:25:08;53.14;45.28;67.08;;
71628;Laerm;59477;52.374;9.916;2023-05-16T08:27:09;51.07;45.65;61.85;;
71628;Laerm;59477;52.374;9.916;2023-05-16T08:29:10;51.32;45.37;67.44;;
71628;Laerm;59477;52.374;9.916;2023-05-16T08:31:11;50.96;45.90;62.88;;
71628;Laerm;59477;52.374;9.916;2023-05-16T08:33:12;54.84;44.65;74.96;;
71628;Laerm;59477;52.374;9.916;2023-05-16T08:35:12;51.67;45.82;67.45;;
71628;Laerm;59477;52.374;9.916;2023-05-16T08:37:31;52.88;46.21;70.46;;
71628;Laerm;59477;52.374;9.916;2023-05-16T08:39:33;54.90;45.41;76.00;;
71628;Laerm;59477;52.374;9.916;2023-05-16T08:41:33;53.66;45.11;67.33;;
71628;Laerm;59477;52.374;9.916;2023-05-16T08:43:34;55.37;44.75;74.56;;
71628;Laerm;59477;52.374;9.916;2023-05-16T08:45:54;54.90;45.83;70.03;;
71628;Laerm;59477;52.374;9.916;2023-05-16T08:47:55;53.43;45.63;67.49;;
71628;Laerm;59477;52.374;9.916;2023-05-16T08:50:14;51.86;46.94;62.00;;
71628;Laerm;59477;52.374;9.916;2023-05-16T08:52:16;50.94;45.55;63.72;;
71628;Laerm;59477;52.374;9.916;2023-05-16T08:54:18;55.66;49.21;72.50;;
71628;Laerm;59477;52.374;9.916;2023-05-16T08:56:19;57.12;49.86;77.72;;
71628;Laerm;59477;52.374;9.916;2023-05-16T08:58:21;56.70;49.99;71.12;;
71628;Laerm;59477;52.374;9.916;2023-05-16T09:00:40;55.16;49.31;66.54;;
71628;Laerm;59477;52.374;9.916;2023-05-16T09:02:41;55.18;48.53;68.46;;
71628;Laerm;59477;52.374;9.916;2023-05-16T09:04:43;51.95;46.55;63.41;;
71628;Laerm;59477;52.374;9.916;2023-05-16T09:07:04;53.65;46.45;68.77;;
71628;Laerm;59477;52.374;9.916;2023-05-16T09:09:05;49.60;45.30;59.81;;
71628;Laerm;59477;52.374;9.916;2023-05-16T09:11:25;50.49;45.76;61.87;;
71628;Laerm;59477;52.374;9.916;2023-05-16T09:13:26;50.52;45.56;64.62;;
71628;Laerm;59477;52.374;9.916;2023-05-16T09:15:30;52.37;46.14;69.22;;
71628;Laerm;59477;52.374;9.916;2023-05-16T09:17:37;53.55;46.93;60.92;;
71628;Laerm;59477;52.374;9.916;2023-05-16T09:19:38;54.72;49.52;69.35;;
71628;Laerm;59477;52.374;9.916;2023-05-16T09:21:42;55.22;50.00;63.51;;
71628;Laerm;59477;52.374;9.916;2023-05-16T09:23:42;55.65;50.54;68.99;;
71628;Laerm;59477;52.374;9.916;2023-05-16T09:25:44;58.96;52.16;70.48;;
71628;Laerm;59477;52.374;9.916;2023-05-16T09:27:47;57.10;48.48;70.09;;
71628;Laerm;59477;52.374;9.916;2023-05-16T09:29:49;58.11;48.03;74.14;;
71628;Laerm;59477;52.374;9.916;2023-05-16T09:31:50;55.75;48.82;72.02;;
71628;Laerm;59477;52.374;9.916;2023-05-16T09:34:09;54.53;48.40;72.12;;
71628;Laerm;59477;52.374;9.916;2023-05-16T09:36:31;52.90;48.50;63.66;;
71628;Laerm;59477;52.374;9.916;2023-05-16T09:38:31;58.69;47.84;74.95;;
71628;Laerm;59477;52.374;9.916;2023-05-16T09:40:33;57.88;52.01;65.76;;
71628;Laerm;59477;52.374;9.916;2023-05-16T09:42:33;55.21;47.96;71.60;;
71628;Laerm;59477;52.374;9.916;2023-05-16T09:44:53;57.67;46.92;71.23;;
71628;Laerm;59477;52.374;9.916;2023-05-16T09:47:16;53.18;47.22;64.06;;
71628;Laerm;59477;52.374;9.916;2023-05-16T09:49:17;53.22;45.88;61.86;;
71628;Laerm;59477;52.374;9.916;2023-05-16T09:51:20;51.85;45.90;72.39;;
71628;Laerm;59477;52.374;9.916;2023-05-16T09:53:27;53.31;48.05;69.27;;
71628;Laerm;59477;52.374;9.916;2023-05-16T09:55:29;57.06;46.57;68.46;;
71628;Laerm;59477;52.374;9.916;2023-05-16T09:57:48;51.37;45.28;61.43;;
71628;Laerm;59477;52.374;9.916;2023-05-16T09:59:49;53.93;45.76;69.37;;
71628;Laerm;59477;52.374;9.916;2023-05-16T10:01:49;53.71;47.51;66.91;;
71628;Laerm;59477;52.374;9.916;2023-05-16T10:03:52;53.52;47.65;64.64;;
71628;Laerm;59477;52.374;9.916;2023-05-16T10:05:54;53.47;46.10;68.07;;
71628;Laerm;59477;52.374;9.916;2023-05-16T10:07:55;53.19;44.22;80.82;;
71628;Laerm;59477;52.374;9.916;2023-05-16T10:09:56;48.21;44.13;55.51;;
71628;Laerm;59477;52.374;9.916;2023-05-16T10:11:57;48.39;44.73;57.87;;
71628;Laerm;59477;52.374;9.916;2023-05-16T10:14:02;51.10;44.28;64.28;;
71628;Laerm;59477;52.374;9.916;2023-05-16T10:16:10;54.26;44.99;70.22;;
71628;Laerm;59477;52.374;9.916;2023-05-16T10:18:11;51.37;46.61;66.75;;
71628;Laerm;59477;52.374;9.916;2023-05-16T10:20:13;49.21;44.91;57.70;;
71628;Laerm;59477;52.374;9.916;2023-05-16T10:22:15;51.68;43.93;73.22;;
71628;Laerm;59477;52.374;9.916;2023-05-16T10:24:17;50.90;44.02;69.28;;
71628;Laerm;59477;52.374;9.916;2023-05-16T10:26:21;55.49;46.54;74.42;;
71628;Laerm;59477;52.374;9.916;2023-05-16T10:28:22;59.77;47.19;76.16;;
71628;Laerm;59477;52.374;9.916;2023-05-16T10:30:24;55.63;46.72;71.81;;
71628;Laerm;59477;52.374;9.916;2023-05-16T10:32:24;54.23;46.03;67.15;;
71628;Laerm;59477;52.374;9.916;2023-05-16T10:34:25;53.21;48.46;73.74;;
71628;Laerm;59477;52.374;9.916;2023-05-16T10:36:26;56.12;49.97;73.91;;
71628;Laerm;59477;52.374;9.916;2023-05-16T10:38:26;55.61;48.72;70.45;;
71628;Laerm;59477;52.374;9.916;2023-05-16T10:40:27;56.08;48.35;74.24;;
71628;Laerm;59477;52.374;9.916;2023-05-16T10:42:30;56.25;49.79;71.26;;
71628;Laerm;59477;52.374;9.916;2023-05-16T10:44:31;57.44;51.48;71.78;;
71628;Laerm;59477;52.374;9.916;2023-05-16T10:46:33;56.60;50.60;67.11;;
71628;Laerm;59477;52.374;9.916;2023-05-16T10:48:34;55.23;47.58;65.84;;
71628;Laerm;59477;52.374;9.916;2023-05-16T10:50:39;50.62;45.53;60.94;;
71628;Laerm;59477;52.374;9.916;2023-05-16T10:52:40;53.06;45.76;72.26;;
71628;Laerm;59477;52.374;9.916;2023-05-16T10:54:59;55.00;46.18;73.65;;
71628;Laerm;59477;52.374;9.916;2023-05-16T10:57:14;53.24;45.63;65.48;;
71628;Laerm;59477;52.374;9.916;2023-05-16T10:59:22;53.50;43.74;64.25;;
71628;Laerm;59477;52.374;9.916;2023-05-16T11:01:33;53.36;46.97;63.59;;
71628;Laerm;59477;52.374;9.916;2023-05-16T11:06:01;48.80;43.43;54.72;;
71628;Laerm;59477;52.374;9.916;2023-05-16T11:08:04;50.75;45.82;62.80;;
71628;Laerm;59477;52.374;9.916;2023-05-16T11:10:07;49.96;44.62;65.10;;
71628;Laerm;59477;52.374;9.916;2023-05-16T11:12:08;51.26;44.82;67.68;;
71628;Laerm;59477;52.374;9.916;2023-05-16T11:14:32;49.06;43.06;57.59;;
71628;Laerm;59477;52.374;9.916;2023-05-16T11:16:34;58.05;47.18;71.02;;
71628;Laerm;59477;52.374;9.916;2023-05-16T11:18:35;53.53;45.21;72.07;;
71628;Laerm;59477;52.374;9.916;2023-05-16T11:20:50;58.22;46.45;75.36;;
71628;Laerm;59477;52.374;9.916;2023-05-16T11:22:51;55.64;46.14;64.75;;
71628;Laerm;59477;52.374;9.916;2023-05-16T11:25:11;53.11;43.89;69.91;;
71628;Laerm;59477;52.374;9.916;2023-05-16T11:27:31;56.40;44.11;69.88;;
71628;Laerm;59477;52.374;9.916;2023-05-16T11:29:33;51.04;46.14;62.31;;
71628;Laerm;59477;52.374;9.916;2023-05-16T11:31:34;54.46;46.42;69.03;;
71628;Laerm;59477;52.374;9.916;2023-05-16T11:33:53;55.73;49.57;75.01;;
71628;Laerm;59477;52.374;9.916;2023-05-16T11:38:02;57.76;50.63;72.15;;
71628;Laerm;59477;52.374;9.916;2023-05-16T11:40:03;56.79;49.78;75.72;;
71628;Laerm;59477;52.374;9.916;2023-05-16T11:42:22;55.97;46.89;74.19;;
71628;Laerm;59477;52.374;9.916;2023-05-16T11:44:22;53.11;45.04;66.25;;
71628;Laerm;59477;52.374;9.916;2023-05-16T11:46:23;53.43;44.86;72.18;;
71628;Laerm;59477;52.374;9.916;2023-05-16T11:48:24;59.79;46.91;68.80;;
71628;Laerm;59477;52.374;9.916;2023-05-16T11:50:34;51.04;44.30;65.30;;
71628;Laerm;59477;52.374;9.916;2023-05-16T11:52:35;54.59;43.73;73.27;;
71628;Laerm;59477;52.374;9.916;2023-05-16T11:54:36;52.11;45.24;68.99;;
71628;Laerm;59477;52.374;9.916;2023-05-16T11:56:40;52.66;44.46;67.25;;
71628;Laerm;59477;52.374;9.916;2023-05-16T11:58:42;53.29;44.89;67.25;;